createdAt,value
2019-04-07T00:00:09.034Z,11.73
2019-04-07T00:02:58.183Z,10.77
2019-04-07T00:05:47.335Z,11.40
2019-04-07T00:08:35.754Z,11.10
2019-04-07T00:11:24.048Z,9.83
2019-04-07T00:14:12.704Z,10.33
2019-04-07T00:17:00.862Z,10.67
2019-04-07T00:19:49.475Z,9.93
2019-04-07T00:22:38.084Z,11.10
2019-04-07T00:25:26.354Z,9.87
2019-04-07T00:28:14.932Z,10.10
2019-04-07T00:31:04.183Z,10.53
2019-04-07T00:33:53.050Z,10.60
2019-04-07T00:36:42.011Z,11.20
2019-04-07T00:39:31.280Z,10.00
2019-04-07T00:42:19.865Z,10.30
2019-04-07T00:45:08.742Z,10.33
2019-04-07T00:47:57.468Z,10.73
2019-04-07T00:50:46.967Z,10.40
2019-04-07T00:53:35.692Z,9.57
2019-04-07T00:56:24.020Z,10.50
2019-04-07T00:59:13.085Z,10.10
2019-04-07T01:01:55.280Z,10.30
2019-04-07T01:04:44.625Z,8.90
2019-04-07T01:07:32.626Z,9.57
2019-04-07T01:10:22.114Z,10.27
2019-04-07T01:13:11.923Z,10.33
2019-04-07T01:16:00.234Z,10.50
2019-04-07T01:18:49.128Z,11.13
2019-04-07T01:21:38.174Z,10.23
2019-04-07T01:24:27.712Z,10.20
2019-04-07T01:27:17.098Z,9.37
2019-04-07T01:30:07.188Z,9.40
2019-04-07T01:32:55.450Z,9.13
2019-04-07T01:35:48.304Z,10.10
2019-04-07T01:38:33.735Z,9.30
2019-04-07T01:41:29.954Z,10.00
2019-04-07T01:44:20.204Z,9.30
2019-04-07T01:47:18.976Z,11.17
2019-04-07T01:50:19.358Z,10.43
2019-04-07T01:53:09.064Z,9.60
2019-04-07T01:56:01.866Z,10.10
2019-04-07T01:59:11.216Z,10.30
2019-04-07T02:02:02.248Z,10.23
2019-04-07T02:05:00.671Z,9.20
2019-04-07T02:08:08.662Z,10.37
2019-04-07T02:11:18.635Z,10.30
2019-04-07T02:14:09.303Z,9.60
2019-04-07T02:17:02.414Z,9.30
2019-04-07T02:20:02.628Z,8.57
2019-04-07T02:23:01.971Z,9.40
2019-04-07T02:25:52.746Z,8.23
2019-04-07T02:28:46.271Z,8.63
2019-04-07T02:31:52.235Z,9.70
2019-04-07T02:34:43.946Z,10.40
2019-04-07T02:37:35.241Z,10.80
2019-04-07T02:40:31.181Z,8.70
2019-04-07T02:43:31.017Z,8.90
2019-04-07T02:46:24.296Z,9.00
2019-04-07T02:49:14.442Z,9.10
2019-04-07T02:52:11.041Z,10.20
2019-04-07T02:55:19.706Z,8.83
2019-04-07T02:58:13.594Z,9.13
2019-04-07T03:01:07.866Z,8.77
2019-04-07T03:03:40.636Z,9.57
2019-04-07T03:06:41.316Z,8.67
2019-04-07T03:09:22.960Z,9.40
2019-04-07T03:12:13.665Z,9.57
2019-04-07T03:15:21.553Z,8.77
2019-04-07T03:18:14.223Z,8.90
2019-04-07T03:21:07.686Z,8.33
2019-04-07T03:24:12.443Z,8.80
2019-04-07T03:27:15.710Z,8.70
2019-04-07T03:30:14.426Z,8.93
2019-04-07T03:33:11.102Z,8.73
2019-04-07T03:36:17.475Z,9.40
2019-04-07T03:39:20.897Z,9.60
2019-04-07T03:42:26.932Z,8.20
2019-04-07T03:45:16.989Z,8.50
2019-04-07T03:48:08.374Z,9.70
2019-04-07T03:51:11.101Z,11.10
2019-04-07T03:54:07.312Z,13.03
2019-04-07T03:57:06.998Z,12.23
2019-04-07T03:59:57.751Z,12.60
2019-04-07T04:03:00.517Z,12.70
2019-04-07T04:05:59.826Z,12.20
2019-04-07T04:08:53.054Z,11.70
2019-04-07T04:11:59.910Z,10.43
2019-04-07T04:15:02.011Z,9.90
2019-04-07T04:17:51.382Z,11.13
2019-04-07T04:20:40.804Z,11.30
2019-04-07T04:23:30.297Z,10.10
2019-04-07T04:26:19.471Z,9.97
2019-04-07T04:29:08.480Z,10.60
2019-04-07T04:31:57.703Z,10.07
2019-04-07T04:34:47.906Z,9.77
2019-04-07T04:37:44.311Z,10.37
2019-04-07T04:40:28.069Z,11.03
2019-04-07T04:43:17.756Z,10.30
2019-04-07T04:46:09.948Z,10.47
2019-04-07T04:48:57.382Z,10.50
2019-04-07T04:51:45.633Z,9.57
2019-04-07T04:54:35.253Z,10.40
2019-04-07T04:57:25.207Z,10.00
2019-04-07T05:00:15.729Z,9.87
2019-04-07T05:03:04.658Z,9.10
2019-04-07T05:05:53.512Z,8.97
2019-04-07T05:08:41.885Z,8.90
2019-04-07T05:11:30.655Z,9.80
2019-04-07T05:14:19.779Z,10.43
2019-04-07T05:17:08.317Z,10.40
2019-04-07T05:19:56.623Z,9.93
2019-04-07T05:22:46.095Z,9.50
2019-04-07T05:25:36.961Z,9.13
2019-04-07T05:28:26.630Z,10.00
2019-04-07T05:31:15.353Z,10.03
2019-04-07T05:34:03.837Z,10.80
2019-04-07T05:36:52.245Z,9.63
2019-04-07T05:39:41.127Z,9.47
2019-04-07T05:42:30.063Z,9.50
2019-04-07T05:45:20.465Z,8.93
2019-04-07T05:48:09.835Z,9.30
2019-04-07T05:51:00.728Z,8.57
2019-04-07T05:53:49.186Z,8.53
2019-04-07T05:56:39.232Z,10.17
2019-04-07T05:59:28.745Z,9.80
2019-04-07T06:02:17.832Z,9.93
2019-04-07T06:05:07.569Z,9.43
2019-04-07T06:07:56.936Z,8.00
2019-04-07T06:10:46.061Z,9.07
2019-04-07T06:13:34.567Z,9.80
2019-04-07T06:16:24.629Z,9.73
2019-04-07T06:19:13.455Z,9.30
2019-04-07T06:22:02.360Z,9.60
2019-04-07T06:24:51.671Z,11.70
2019-04-07T06:27:40.577Z,10.33
2019-04-07T06:30:31.864Z,10.27
2019-04-07T06:33:20.814Z,13.83
2019-04-07T06:36:09.602Z,16.10
2019-04-07T06:38:58.253Z,16.80
2019-04-07T06:41:46.708Z,17.50
2019-04-07T06:44:35.645Z,16.27
2019-04-07T06:47:37.032Z,19.13
2019-04-07T06:50:49.435Z,18.07
2019-04-07T06:53:50.445Z,17.00
2019-04-07T06:56:43.658Z,16.40
2019-04-07T06:59:45.664Z,15.90
2019-04-07T07:02:45.584Z,16.13
2019-04-07T07:05:17.920Z,16.20
2019-04-07T07:08:08.534Z,17.50
2019-04-07T07:11:24.784Z,17.53
2019-04-07T07:13:51.178Z,18.30
2019-04-07T07:16:36.151Z,19.33
2019-04-07T07:19:06.356Z,19.23
2019-04-07T07:21:42.518Z,26.13
2019-04-07T07:24:31.502Z,40.87
2019-04-07T07:27:20.754Z,45.70
2019-04-07T07:30:12.090Z,44.10
2019-04-07T07:33:01.906Z,43.20
2019-04-07T07:35:50.883Z,42.93
2019-04-07T07:38:39.738Z,43.93
2019-04-07T07:41:28.146Z,38.97
2019-04-07T07:44:17.626Z,37.87
2019-04-07T07:47:06.936Z,39.00
2019-04-07T07:49:55.435Z,39.27
2019-04-07T07:52:45.267Z,35.90
2019-04-07T07:55:37.635Z,37.83
2019-04-07T07:58:28.036Z,41.50
2019-04-07T08:01:15.938Z,38.20
2019-04-07T08:04:05.296Z,38.43
2019-04-07T08:06:55.560Z,37.47
2019-04-07T08:09:45.085Z,33.80
2019-04-07T08:12:34.939Z,31.70
2019-04-07T08:15:29.720Z,31.47
2019-04-07T08:18:13.857Z,29.83
2019-04-07T08:21:03.320Z,27.90
2019-04-07T08:23:52.400Z,26.60
2019-04-07T08:26:41.697Z,25.73
2019-04-07T08:29:30.258Z,24.77
2019-04-07T08:32:19.809Z,26.70
2019-04-07T08:35:10.531Z,26.03
2019-04-07T08:37:59.883Z,23.20
2019-04-07T08:40:49.681Z,24.77
2019-04-07T08:43:39.784Z,22.37
2019-04-07T08:46:32.077Z,20.07
2019-04-07T08:49:23.600Z,19.87
2019-04-07T08:52:12.342Z,19.57
2019-04-07T08:55:00.531Z,20.30
2019-04-07T08:57:49.451Z,21.27
2019-04-07T09:00:50.810Z,18.63
2019-04-07T09:03:38.790Z,20.13
2019-04-07T09:06:29.302Z,18.87
2019-04-07T09:09:18.113Z,18.87
2019-04-07T09:12:07.073Z,20.03
2019-04-07T09:14:55.677Z,22.17
2019-04-07T09:17:50.143Z,20.30
2019-04-07T09:20:46.126Z,19.70
2019-04-07T09:23:39.051Z,19.20
2019-04-07T09:26:29.672Z,19.00
2019-04-07T09:29:31.402Z,23.27
2019-04-07T09:32:27.807Z,25.47
2019-04-07T09:35:25.711Z,25.23
2019-04-07T09:38:31.403Z,23.87
2019-04-07T09:41:27.454Z,22.77
2019-04-07T09:44:17.275Z,20.87
2019-04-07T09:47:11.253Z,21.13
2019-04-07T09:50:17.451Z,20.00
2019-04-07T09:53:19.391Z,20.80
2019-04-07T09:56:11.636Z,18.30
2019-04-07T09:59:03.584Z,19.47
2019-04-07T10:02:10.362Z,19.27
2019-04-07T10:05:00.761Z,18.43
2019-04-07T10:08:18.312Z,16.80
2019-04-07T10:11:13.931Z,18.20
2019-04-07T10:14:05.680Z,18.20
2019-04-07T10:19:50.370Z,17.73
2019-04-07T10:22:44.034Z,18.00
2019-04-07T10:25:36.993Z,16.60
2019-04-07T10:28:27.694Z,17.40
2019-04-07T10:31:34.943Z,17.80
2019-04-07T10:34:43.645Z,15.20
2019-04-07T10:37:45.292Z,17.03
2019-04-07T10:40:35.054Z,17.77
2019-04-07T10:43:37.037Z,17.40
2019-04-07T10:46:30.934Z,17.93
2019-04-07T10:49:27.417Z,16.50
2019-04-07T10:52:34.285Z,16.90
2019-04-07T10:55:41.381Z,16.27
2019-04-07T10:58:31.314Z,15.77
2019-04-07T11:01:37.944Z,15.47
2019-04-07T11:04:28.355Z,14.90
2019-04-07T11:07:34.014Z,15.37
2019-04-07T11:10:37.460Z,15.07
2019-04-07T11:13:27.644Z,21.57
2019-04-07T11:16:21.096Z,34.13
2019-04-07T11:19:24.155Z,43.27
2019-04-07T11:21:56.759Z,43.67
2019-04-07T11:24:45.861Z,43.60
2019-04-07T11:27:22.047Z,44.10
2019-04-07T11:30:09.712Z,47.63
2019-04-07T11:32:48.092Z,45.23
2019-04-07T11:35:37.990Z,43.73
2019-04-07T11:38:16.644Z,42.60
2019-04-07T11:40:51.198Z,42.27
2019-04-07T11:47:13.155Z,37.03
2019-04-07T11:50:09.376Z,36.17
2019-04-07T11:53:00.574Z,35.70
2019-04-07T11:55:59.079Z,34.30
2019-04-07T11:59:06.316Z,32.83
2019-04-07T12:01:58.609Z,33.67
2019-04-07T12:05:05.422Z,31.50
2019-04-07T12:08:11.676Z,30.17
2019-04-07T12:11:06.228Z,30.40
2019-04-07T12:13:58.689Z,29.70
2019-04-07T12:16:51.392Z,30.70
2019-04-07T12:19:57.137Z,28.87
2019-04-07T12:23:03.708Z,28.17
2019-04-07T12:26:08.628Z,28.17
2019-04-07T12:29:11.264Z,27.13
2019-04-07T12:32:13.110Z,26.73
2019-04-07T12:35:08.919Z,26.00
2019-04-07T12:38:17.560Z,26.47
2019-04-07T12:41:24.434Z,22.93
2019-04-07T12:44:17.498Z,23.30
2019-04-07T12:47:10.279Z,23.30
2019-04-07T12:50:05.167Z,24.30
2019-04-07T12:52:55.426Z,24.07
2019-04-07T12:56:01.892Z,24.33
2019-04-07T12:59:08.995Z,20.63
2019-04-07T13:02:17.921Z,24.17
2019-04-07T13:05:11.045Z,22.70
2019-04-07T13:08:15.816Z,23.70
2019-04-07T13:11:10.626Z,21.70
2019-04-07T13:14:15.161Z,21.40
2019-04-07T13:17:05.368Z,21.93
2019-04-07T13:20:04.099Z,22.37
2019-04-07T13:23:06.049Z,21.43
2019-04-07T13:25:56.734Z,20.47
2019-04-07T13:28:58.700Z,20.97
2019-04-07T13:31:51.304Z,21.77
2019-04-07T13:34:41.110Z,20.13
2019-04-07T13:37:45.875Z,21.73
2019-04-07T13:40:47.470Z,24.57
2019-04-07T13:43:39.681Z,20.17
2019-04-07T13:46:45.524Z,18.67
2019-04-07T13:49:47.386Z,20.20
2019-04-07T13:52:52.814Z,21.33
2019-04-07T13:55:42.683Z,21.70
2019-04-07T13:58:36.681Z,21.20
2019-04-07T14:01:38.647Z,20.20
2019-04-07T14:04:31.656Z,19.57
2019-04-07T14:07:20.787Z,19.00
2019-04-07T14:10:20.240Z,20.50
2019-04-07T14:13:26.756Z,19.70
2019-04-07T14:16:17.071Z,18.40
2019-04-07T14:19:07.701Z,19.80
2019-04-07T14:22:04.377Z,18.87
2019-04-07T14:24:54.776Z,20.67
2019-04-07T14:27:47.337Z,20.20
2019-04-07T14:30:54.033Z,18.93
2019-04-07T14:34:03.519Z,19.10
2019-04-07T14:37:00.073Z,18.23
2019-04-07T14:39:59.885Z,18.93
2019-04-07T14:42:59.372Z,18.20
2019-04-07T14:45:50.396Z,17.67
2019-04-07T14:48:42.985Z,18.13
2019-04-07T14:51:34.029Z,18.10
2019-04-07T14:54:24.539Z,18.30
2019-04-07T14:57:15.424Z,19.33
2019-04-07T15:00:20.430Z,18.47
2019-04-07T15:03:09.500Z,18.17
2019-04-07T15:05:58.299Z,19.20
2019-04-07T15:09:01.881Z,17.70
2019-04-07T15:11:51.194Z,18.77
2019-04-07T15:14:39.414Z,18.40
2019-04-07T15:17:27.325Z,17.53
2019-04-07T15:20:15.779Z,16.63
2019-04-07T15:23:04.384Z,17.57
2019-04-07T15:25:52.838Z,16.10
2019-04-07T15:28:41.653Z,16.90
2019-04-07T15:31:30.849Z,16.97
2019-04-07T15:34:19.853Z,17.07
2019-04-07T15:37:07.963Z,15.93
2019-04-07T15:39:56.966Z,16.33
2019-04-07T15:42:50.579Z,16.33
2019-04-07T15:45:39.694Z,16.73
2019-04-07T15:48:29.643Z,18.67
2019-04-07T15:51:18.058Z,26.87
2019-04-07T15:54:06.424Z,28.80
2019-04-07T15:56:55.299Z,29.33
2019-04-07T15:59:44.920Z,27.00
2019-04-07T16:02:33.612Z,28.87
2019-04-07T16:05:22.708Z,25.03
2019-04-07T16:08:11.674Z,23.67
2019-04-07T16:11:01.850Z,23.20
2019-04-07T16:13:50.286Z,22.57
2019-04-07T16:16:38.342Z,20.57
2019-04-07T16:19:37.571Z,19.97
2019-04-07T16:22:16.979Z,19.67
2019-04-07T16:25:08.061Z,18.53
2019-04-07T16:27:56.623Z,17.40
2019-04-07T16:30:48.566Z,17.00
2019-04-07T16:33:35.973Z,16.63
2019-04-07T16:36:25.549Z,15.20
2019-04-07T16:39:14.544Z,15.97
2019-04-07T16:42:03.255Z,15.67
2019-04-07T16:44:51.374Z,17.00
2019-04-07T16:47:39.619Z,14.63
2019-04-07T16:50:28.210Z,15.47
2019-04-07T16:53:18.405Z,14.50
2019-04-07T16:56:07.490Z,15.97
2019-04-07T16:58:56.654Z,15.97
2019-04-07T17:01:45.559Z,17.37
2019-04-07T17:04:34.977Z,16.83
2019-04-07T17:07:24.427Z,16.43
2019-04-07T17:10:13.313Z,17.67
2019-04-07T17:13:13.564Z,18.60
2019-04-07T17:15:52.900Z,18.33
2019-04-07T17:18:43.366Z,19.73
2019-04-07T17:21:31.947Z,19.27
2019-04-07T17:24:25.012Z,20.80
2019-04-07T17:27:11.777Z,19.67
2019-04-07T17:30:00.018Z,18.83
2019-04-07T17:32:50.114Z,19.47
2019-04-07T17:35:39.005Z,19.60
2019-04-07T17:38:36.246Z,19.87
2019-04-07T17:41:25.261Z,19.70
2019-04-07T17:44:17.624Z,19.47
2019-04-07T17:47:07.248Z,19.83
2019-04-07T17:49:39.670Z,20.13
2019-04-07T17:52:32.586Z,20.13
2019-04-07T17:55:31.592Z,20.47
2019-04-07T17:58:36.780Z,19.47
2019-04-07T18:01:41.083Z,20.27
2019-04-07T18:04:35.767Z,21.17
2019-04-07T18:07:25.565Z,19.47
2019-04-07T18:10:23.747Z,20.83
2019-04-07T18:13:15.429Z,20.20
2019-04-07T18:16:22.517Z,20.33
2019-04-07T18:19:15.308Z,22.00
2019-04-07T18:22:08.444Z,20.63
2019-04-07T18:25:02.295Z,20.10
2019-04-07T18:27:53.275Z,19.87
2019-04-07T18:30:43.077Z,21.33
2019-04-07T18:33:51.719Z,21.57
2019-04-07T18:36:49.579Z,18.13
2019-04-07T18:39:51.677Z,20.03
2019-04-07T18:42:42.266Z,21.17
2019-04-07T18:45:49.899Z,19.53
2019-04-07T18:49:01.149Z,20.03
2019-04-07T18:51:50.397Z,19.10
2019-04-07T18:54:57.669Z,20.50
2019-04-07T18:58:04.015Z,19.20
2019-04-07T19:01:00.763Z,20.63
2019-04-07T19:03:53.263Z,20.97
2019-04-07T19:06:46.139Z,21.10
2019-04-07T19:09:49.840Z,21.00
2019-04-07T19:12:49.215Z,21.47
2019-04-07T19:15:39.930Z,21.00
2019-04-07T19:18:30.604Z,21.50
2019-04-07T19:21:38.961Z,20.40
2019-04-07T19:24:43.593Z,20.23
2019-04-07T19:27:37.426Z,19.40
2019-04-07T19:30:33.338Z,20.10
2019-04-07T19:33:24.481Z,18.77
2019-04-07T19:36:30.791Z,21.03
2019-04-07T19:39:24.690Z,19.67
2019-04-07T19:42:31.836Z,18.33
2019-04-07T19:45:39.933Z,20.60
2019-04-07T19:48:42.894Z,21.00
2019-04-07T19:51:31.881Z,19.40
2019-04-07T19:54:40.003Z,19.33
2019-04-07T19:57:30.145Z,18.30
2019-04-07T20:00:37.257Z,18.20
2019-04-07T20:03:27.159Z,17.93
2019-04-07T20:06:23.084Z,18.70
2019-04-07T20:09:12.723Z,19.30
2019-04-07T20:12:11.397Z,17.67
2019-04-07T20:15:08.812Z,16.60
2019-04-07T20:17:59.003Z,16.77
2019-04-07T20:20:53.566Z,16.47
2019-04-07T20:23:46.135Z,15.60
2019-04-07T20:26:55.472Z,16.37
2019-04-07T20:29:58.382Z,16.30
2019-04-07T20:33:05.287Z,15.50
2019-04-07T20:36:18.701Z,17.30
2019-04-07T20:39:03.991Z,15.80
2019-04-07T20:41:56.909Z,15.47
2019-04-07T20:45:07.924Z,15.57
2019-04-07T20:48:11.428Z,14.03
2019-04-07T20:51:01.199Z,14.30
2019-04-07T20:54:03.909Z,15.93
2019-04-07T20:57:05.436Z,14.70
2019-04-07T21:00:12.205Z,15.30
2019-04-07T21:03:15.129Z,14.27
2019-04-07T21:06:12.646Z,14.67
2019-04-07T21:09:05.827Z,14.27
2019-04-07T21:12:13.226Z,14.40
2019-04-07T21:15:21.171Z,13.93
2019-04-07T21:18:22.322Z,14.47
2019-04-07T21:21:17.847Z,13.73
2019-04-07T21:24:27.147Z,13.30
2019-04-07T21:27:20.537Z,12.67
2019-04-07T21:30:12.851Z,13.73
2019-04-07T21:33:15.091Z,13.03
2019-04-07T21:36:21.759Z,12.13
2019-04-07T21:39:12.072Z,13.03
2019-04-07T21:42:03.074Z,12.07
2019-04-07T21:45:05.422Z,14.03
2019-04-07T21:48:00.307Z,13.10
2019-04-07T21:50:50.271Z,12.60
2019-04-07T21:53:40.963Z,12.00
2019-04-07T21:56:33.387Z,12.70
2019-04-07T21:59:29.319Z,12.30
2019-04-07T22:02:35.462Z,12.60
2019-04-07T22:05:28.682Z,12.30
2019-04-07T22:08:19.089Z,11.90
2019-04-07T22:11:08.133Z,12.20
2019-04-07T22:13:57.466Z,11.50
2019-04-07T22:16:45.566Z,11.43
2019-04-07T22:19:36.055Z,11.90
2019-04-07T22:22:26.585Z,12.67
2019-04-07T22:25:30.720Z,12.80
2019-04-07T22:28:20.627Z,12.03
2019-04-07T22:31:12.861Z,11.67
2019-04-07T22:34:01.272Z,12.77
2019-04-07T22:36:49.638Z,12.17
2019-04-07T22:39:38.088Z,11.80
2019-04-07T22:42:26.485Z,12.07
2019-04-07T22:45:15.036Z,12.37
2019-04-07T22:48:03.532Z,11.30
2019-04-07T22:50:51.876Z,11.17
2019-04-07T22:53:41.246Z,10.90
2019-04-07T22:56:29.907Z,11.37
2019-04-07T22:59:18.115Z,10.67
2019-04-07T23:02:07.353Z,12.40
2019-04-07T23:04:55.814Z,10.47
2019-04-07T23:07:44.306Z,10.93
2019-04-07T23:10:32.505Z,12.03
2019-04-07T23:13:21.990Z,11.23
2019-04-07T23:16:13.889Z,11.87
2019-04-07T23:19:00.425Z,10.67
2019-04-07T23:21:49.131Z,12.20
2019-04-07T23:24:37.669Z,10.40
2019-04-07T23:27:27.662Z,10.77
2019-04-07T23:30:19.400Z,10.57
2019-04-07T23:33:08.426Z,11.10
2019-04-07T23:35:57.492Z,10.50
2019-04-07T23:38:46.108Z,11.10
2019-04-07T23:41:35.168Z,10.50
2019-04-07T23:44:24.115Z,10.60
2019-04-07T23:47:13.162Z,9.30
2019-04-07T23:50:01.372Z,10.90
2019-04-07T23:52:49.855Z,10.30
2019-04-07T23:55:38.307Z,11.57
2019-04-07T23:58:27.295Z,10.17
